sensor_id;sensor_type;location;lat;lon;timestamp;pressure;altitude;pressure_sealevel;temperature;humidity
49943;BME280;36011;53.362;58.948;2023-05-01T00:00:52;97206.22;;;11.78;39.74
49943;BME280;36011;53.362;58.948;2023-05-01T00:03:55;97215.00;;;11.64;39.61
49943;BME280;36011;53.362;58.948;2023-05-01T00:06:57;97214.72;;;11.54;39.69
49943;BME280;36011;53.362;58.948;2023-05-01T00:10:00;97214.56;;;11.43;39.50
49943;BME280;36011;53.362;58.948;2023-05-01T00:13:01;97222.28;;;11.32;39.13
49943;BME280;36011;53.362;58.948;2023-05-01T00:16:12;97221.81;;;11.25;39.27
49943;BME280;36011;53.362;58.948;2023-05-01T00:19:15;97219.19;;;11.25;39.19
49943;BME280;36011;53.362;58.948;2023-05-01T00:22:23;97224.47;;;11.25;39.00
49943;BME280;36011;53.362;58.948;2023-05-01T00:25:27;97234.06;;;11.12;38.90
49943;BME280;36011;53.362;58.948;2023-05-01T00:28:28;97228.22;;;11.07;38.58
49943;BME280;36011;53.362;58.948;2023-05-01T00:31:30;97235.84;;;10.97;38.24
49943;BME280;36011;53.362;58.948;2023-05-01T00:34:31;97236.41;;;10.88;38.20
49943;BME280;36011;53.362;58.948;2023-05-01T00:37:32;97241.56;;;10.89;37.98
49943;BME280;36011;53.362;58.948;2023-05-01T00:40:44;97245.50;;;10.68;37.87
49943;BME280;36011;53.362;58.948;2023-05-01T00:43:47;97249.41;;;10.61;37.89
49943;BME280;36011;53.362;58.948;2023-05-01T00:46:50;97260.78;;;10.61;37.78
49943;BME280;36011;53.362;58.948;2023-05-01T00:49:51;97257.41;;;10.59;37.37
49943;BME280;36011;53.362;58.948;2023-05-01T00:52:53;97257.41;;;10.59;37.05
49943;BME280;36011;53.362;58.948;2023-05-01T00:55:57;97250.63;;;10.55;37.01
49943;BME280;36011;53.362;58.948;2023-05-01T00:59:03;97262.34;;;10.49;36.74
49943;BME280;36011;53.362;58.948;2023-05-01T01:02:07;97274.06;;;10.44;36.87
49943;BME280;36011;53.362;58.948;2023-05-01T01:05:10;97279.16;;;10.47;36.65
49943;BME280;36011;53.362;58.948;2023-05-01T01:08:17;97287.22;;;10.44;36.56
49943;BME280;36011;53.362;58.948;2023-05-01T01:14:26;97300.38;;;10.44;36.43
49943;BME280;36011;53.362;58.948;2023-05-01T01:17:33;97317.19;;;10.41;36.26
49943;BME280;36011;53.362;58.948;2023-05-01T01:20:40;97328.41;;;10.45;36.31
49943;BME280;36011;53.362;58.948;2023-05-01T01:23:52;97342.47;;;10.44;36.16
49943;BME280;36011;53.362;58.948;2023-05-01T01:30:28;97342.66;;;10.41;35.95
49943;BME280;36011;53.362;58.948;2023-05-01T01:36:55;97342.13;;;10.50;35.38
49943;BME280;36011;53.362;58.948;2023-05-01T01:40:10;97347.47;;;10.48;35.29
49943;BME280;36011;53.362;58.948;2023-05-01T01:43:12;97353.69;;;10.47;35.18
49943;BME280;36011;53.362;58.948;2023-05-01T01:46:17;97354.78;;;10.59;34.67
49943;BME280;36011;53.362;58.948;2023-05-01T01:49:23;97351.13;;;10.62;34.63
49943;BME280;36011;53.362;58.948;2023-05-01T01:52:25;97358.09;;;10.47;34.66
49943;BME280;36011;53.362;58.948;2023-05-01T01:55:32;97366.38;;;10.55;34.58
49943;BME280;36011;53.362;58.948;2023-05-01T01:58:39;97367.09;;;10.43;34.62
49943;BME280;36011;53.362;58.948;2023-05-01T02:01:44;97374.88;;;10.60;34.34
49943;BME280;36011;53.362;58.948;2023-05-01T02:04:48;97380.22;;;10.59;34.38
49943;BME280;36011;53.362;58.948;2023-05-01T02:07:53;97392.72;;;10.55;34.30
49943;BME280;36011;53.362;58.948;2023-05-01T02:10:55;97399.19;;;10.33;34.76
49943;BME280;36011;53.362;58.948;2023-05-01T02:14:04;97407.31;;;10.29;34.65
49943;BME280;36011;53.362;58.948;2023-05-01T02:17:09;97404.44;;;10.33;34.68
49943;BME280;36011;53.362;58.948;2023-05-01T02:20:10;97405.47;;;10.31;34.76
49943;BME280;36011;53.362;58.948;2023-05-01T02:23:17;97412.66;;;10.27;34.63
49943;BME280;36011;53.362;58.948;2023-05-01T02:26:18;97412.41;;;10.32;34.68
49943;BME280;36011;53.362;58.948;2023-05-01T02:29:24;97414.09;;;10.33;34.53
49943;BME280;36011;53.362;58.948;2023-05-01T02:32:26;97418.16;;;10.39;34.46
49943;BME280;36011;53.362;58.948;2023-05-01T02:35:30;97416.66;;;10.34;34.61
49943;BME280;36011;53.362;58.948;2023-05-01T02:38:33;97418.94;;;10.41;34.59
49943;BME280;36011;53.362;58.948;2023-05-01T02:41:38;97416.56;;;10.52;34.39
49943;BME280;36011;53.362;58.948;2023-05-01T02:44:45;97415.13;;;10.62;34.22
49943;BME280;36011;53.362;58.948;2023-05-01T02:47:54;97406.09;;;10.66;34.29
49943;BME280;36011;53.362;58.948;2023-05-01T02:50:59;97407.28;;;10.76;34.09
49943;BME280;36011;53.362;58.948;2023-05-01T02:54:05;97401.66;;;10.83;33.94
49943;BME280;36011;53.362;58.948;2023-05-01T02:57:10;97408.63;;;10.84;34.04
49943;BME280;36011;53.362;58.948;2023-05-01T03:00:11;97410.69;;;10.78;33.93
49943;BME280;36011;53.362;58.948;2023-05-01T03:03:15;97410.59;;;10.80;34.00
49943;BME280;36011;53.362;58.948;2023-05-01T03:06:21;97415.00;;;10.79;33.97
49943;BME280;36011;53.362;58.948;2023-05-01T03:09:26;97420.53;;;10.75;34.12
49943;BME280;36011;53.362;58.948;2023-05-01T03:12:30;97429.78;;;10.82;34.08
49943;BME280;36011;53.362;58.948;2023-05-01T03:15:35;97431.81;;;10.93;34.00
49943;BME280;36011;53.362;58.948;2023-05-01T03:18:39;97427.25;;;11.11;33.84
49943;BME280;36011;53.362;58.948;2023-05-01T03:21:42;97442.16;;;11.26;33.46
49943;BME280;36011;53.362;58.948;2023-05-01T03:24:44;97440.59;;;11.38;33.39
49943;BME280;36011;53.362;58.948;2023-05-01T03:27:49;97437.81;;;11.55;33.04
49943;BME280;36011;53.362;58.948;2023-05-01T03:30:50;97442.28;;;11.83;32.83
49943;BME280;36011;53.362;58.948;2023-05-01T03:33:55;97439.88;;;12.09;32.30
49943;BME280;36011;53.362;58.948;2023-05-01T03:36:56;97433.16;;;12.32;32.09
49943;BME280;36011;53.362;58.948;2023-05-01T03:39:59;97441.94;;;12.59;31.72
49943;BME280;36011;53.362;58.948;2023-05-01T03:43:02;97438.03;;;12.79;31.48
49943;BME280;36011;53.362;58.948;2023-05-01T03:46:03;97433.81;;;12.77;31.42
49943;BME280;36011;53.362;58.948;2023-05-01T03:49:04;97447.16;;;12.88;31.48
49943;BME280;36011;53.362;58.948;2023-05-01T03:52:06;97433.28;;;13.12;30.96
49943;BME280;36011;53.362;58.948;2023-05-01T03:55:11;97441.28;;;13.37;30.80
49943;BME280;36011;53.362;58.948;2023-05-01T03:58:15;97440.16;;;13.54;30.52
49943;BME280;36011;53.362;58.948;2023-05-01T04:01:18;97440.69;;;13.72;30.10
49943;BME280;36011;53.362;58.948;2023-05-01T04:04:21;97438.47;;;13.66;30.06
49943;BME280;36011;53.362;58.948;2023-05-01T04:07:22;97442.81;;;13.67;30.08
49943;BME280;36011;53.362;58.948;2023-05-01T04:10:26;97445.25;;;13.57;30.34
49943;BME280;36011;53.362;58.948;2023-05-01T04:13:30;97439.75;;;13.60;30.25
49943;BME280;36011;53.362;58.948;2023-05-01T04:16:36;97437.84;;;13.75;29.96
49943;BME280;36011;53.362;58.948;2023-05-01T04:19:39;97449.91;;;13.79;29.96
49943;BME280;36011;53.362;58.948;2023-05-01T04:22:43;97455.41;;;13.89;29.90
49943;BME280;36011;53.362;58.948;2023-05-01T04:25:44;97446.72;;;14.00;29.45
49943;BME280;36011;53.362;58.948;2023-05-01T04:28:49;97456.66;;;14.09;29.41
49943;BME280;36011;53.362;58.948;2023-05-01T04:31:51;97455.63;;;14.24;29.21
49943;BME280;36011;53.362;58.948;2023-05-01T04:34:52;97450.50;;;14.47;29.08
49943;BME280;36011;53.362;58.948;2023-05-01T04:37:56;97460.81;;;14.75;28.90
49943;BME280;36011;53.362;58.948;2023-05-01T04:40:57;97460.84;;;15.23;28.38
49943;BME280;36011;53.362;58.948;2023-05-01T04:43:59;97454.63;;;15.71;27.76
49943;BME280;36011;53.362;58.948;2023-05-01T04:47:00;97453.09;;;16.25;27.04
49943;BME280;36011;53.362;58.948;2023-05-01T04:50:02;97463.56;;;17.37;26.33
49943;BME280;36011;53.362;58.948;2023-05-01T04:53:04;97462.78;;;19.11;24.10
49943;BME280;36011;53.362;58.948;2023-05-01T04:56:07;97470.00;;;20.73;22.88
49943;BME280;36011;53.362;58.948;2023-05-01T04:59:13;97477.97;;;23.37;21.08
49943;BME280;36011;53.362;58.948;2023-05-01T05:02:16;97486.53;;;26.40;19.23
49943;BME280;36011;53.362;58.948;2023-05-01T05:05:20;97490.91;;;28.38;18.09
49943;BME280;36011;53.362;58.948;2023-05-01T05:08:21;97487.22;;;29.15;17.10
49943;BME280;36011;53.362;58.948;2023-05-01T05:11:25;97488.28;;;30.09;16.42
49943;BME280;36011;53.362;58.948;2023-05-01T05:14:29;97486.41;;;30.69;15.56
49943;BME280;36011;53.362;58.948;2023-05-01T05:17:32;97489.06;;;30.96;14.90
49943;BME280;36011;53.362;58.948;2023-05-01T05:20:36;97483.25;;;31.75;14.61
49943;BME280;36011;53.362;58.948;2023-05-01T05:23:40;97491.03;;;32.29;13.85
49943;BME280;36011;53.362;58.948;2023-05-01T05:26:43;97483.13;;;32.71;14.52
49943;BME280;36011;53.362;58.948;2023-05-01T05:29:48;97486.44;;;33.65;13.13
49943;BME280;36011;53.362;58.948;2023-05-01T05:32:52;97478.41;;;34.47;12.61
49943;BME280;36011;53.362;58.948;2023-05-01T05:35:57;97488.50;;;34.94;12.18
49943;BME280;36011;53.362;58.948;2023-05-01T05:39:01;97490.06;;;35.99;12.52
49943;BME280;36011;53.362;58.948;2023-05-01T05:42:07;97484.38;;;37.07;12.52
49943;BME280;36011;53.362;58.948;2023-05-01T05:45:11;97481.06;;;37.76;11.73
49943;BME280;36011;53.362;58.948;2023-05-01T05:48:16;97482.38;;;36.63;11.73
49943;BME280;36011;53.362;58.948;2023-05-01T05:51:19;97482.53;;;35.20;11.15
49943;BME280;36011;53.362;58.948;2023-05-01T05:54:22;97475.63;;;35.58;12.26
49943;BME280;36011;53.362;58.948;2023-05-01T05:57:26;97473.22;;;36.75;10.98
49943;BME280;36011;53.362;58.948;2023-05-01T06:00:27;97484.59;;;37.71;11.04
49943;BME280;36011;53.362;58.948;2023-05-01T06:03:30;97496.75;;;38.77;9.55
49943;BME280;36011;53.362;58.948;2023-05-01T06:06:32;97485.56;;;39.37;8.52
49943;BME280;36011;53.362;58.948;2023-05-01T06:09:36;97495.78;;;39.51;9.19
49943;BME280;36011;53.362;58.948;2023-05-01T06:12:42;97504.38;;;39.02;8.47
49943;BME280;36011;53.362;58.948;2023-05-01T06:15:46;97496.69;;;37.04;9.64
49943;BME280;36011;53.362;58.948;2023-05-01T06:18:50;97489.94;;;36.23;10.56
49943;BME280;36011;53.362;58.948;2023-05-01T06:21:51;97493.56;;;35.25;10.24
49943;BME280;36011;53.362;58.948;2023-05-01T06:24:55;97491.13;;;33.88;10.85
49943;BME280;36011;53.362;58.948;2023-05-01T06:27:59;97480.34;;;33.14;11.69
49943;BME280;36011;53.362;58.948;2023-05-01T06:31:05;97477.81;;;31.75;12.44
49943;BME280;36011;53.362;58.948;2023-05-01T06:34:06;97488.09;;;30.50;12.78
49943;BME280;36011;53.362;58.948;2023-05-01T06:37:07;97480.00;;;29.29;13.46
49943;BME280;36011;53.362;58.948;2023-05-01T06:40:11;97474.88;;;28.64;13.96
49943;BME280;36011;53.362;58.948;2023-05-01T06:43:15;97474.38;;;27.98;14.14
49943;BME280;36011;53.362;58.948;2023-05-01T06:46:19;97479.78;;;27.40;14.70
49943;BME280;36011;53.362;58.948;2023-05-01T06:49:22;97468.75;;;27.57;14.33
49943;BME280;36011;53.362;58.948;2023-05-01T06:52:26;97463.31;;;28.84;13.79
49943;BME280;36011;53.362;58.948;2023-05-01T06:55:27;97475.97;;;30.66;12.61
49943;BME280;36011;53.362;58.948;2023-05-01T06:58:32;97478.63;;;30.93;12.77
49943;BME280;36011;53.362;58.948;2023-05-01T07:01:35;97481.63;;;32.93;11.72
49943;BME280;36011;53.362;58.948;2023-05-01T07:04:39;97490.75;;;35.49;10.42
49943;BME280;36011;53.362;58.948;2023-05-01T07:07:41;97494.06;;;36.76;9.73
49943;BME280;36011;53.362;58.948;2023-05-01T07:10:46;97499.06;;;38.48;9.54
49943;BME280;36011;53.362;58.948;2023-05-01T07:13:49;97504.50;;;40.22;8.79
49943;BME280;36011;53.362;58.948;2023-05-01T07:16:50;97507.22;;;40.11;8.77
49943;BME280;36011;53.362;58.948;2023-05-01T07:19:53;97509.44;;;40.50;8.59
49943;BME280;36011;53.362;58.948;2023-05-01T07:22:57;97507.03;;;38.17;9.81
49943;BME280;36011;53.362;58.948;2023-05-01T07:25:58;97501.56;;;36.30;10.82
49943;BME280;36011;53.362;58.948;2023-05-01T07:28:59;97504.91;;;35.17;11.48
49943;BME280;36011;53.362;58.948;2023-05-01T07:32:02;97500.38;;;33.87;11.24
49943;BME280;36011;53.362;58.948;2023-05-01T07:35:08;97504.69;;;34.83;11.63
49943;BME280;36011;53.362;58.948;2023-05-01T07:38:09;97508.25;;;34.49;11.33
49943;BME280;36011;53.362;58.948;2023-05-01T07:41:14;97504.88;;;33.81;11.87
49943;BME280;36011;53.362;58.948;2023-05-01T07:44:16;97512.56;;;35.72;10.84
49943;BME280;36011;53.362;58.948;2023-05-01T07:47:17;97512.97;;;37.55;9.70
49943;BME280;36011;53.362;58.948;2023-05-01T07:50:21;97523.25;;;39.31;9.25
49943;BME280;36011;53.362;58.948;2023-05-01T07:53:25;97526.56;;;40.52;8.76
49943;BME280;36011;53.362;58.948;2023-05-01T07:56:29;97524.91;;;40.21;8.98
49943;BME280;36011;53.362;58.948;2023-05-01T07:59:33;97520.34;;;39.05;9.07
49943;BME280;36011;53.362;58.948;2023-05-01T08:02:39;97508.50;;;38.30;9.91
49943;BME280;36011;53.362;58.948;2023-05-01T08:05:43;97514.78;;;37.05;10.69
49943;BME280;36011;53.362;58.948;2023-05-01T08:08:47;97504.88;;;36.49;10.36
49943;BME280;36011;53.362;58.948;2023-05-01T08:11:50;97503.31;;;35.73;10.73
49943;BME280;36011;53.362;58.948;2023-05-01T08:14:52;97507.66;;;34.70;11.26
49943;BME280;36011;53.362;58.948;2023-05-01T08:17:53;97504.03;;;34.11;11.71
49943;BME280;36011;53.362;58.948;2023-05-01T08:20:57;97504.28;;;33.79;11.49
49943;BME280;36011;53.362;58.948;2023-05-01T08:24:00;97507.66;;;33.63;11.53
49943;BME280;36011;53.362;58.948;2023-05-01T08:27:01;97513.56;;;35.66;10.53
49943;BME280;36011;53.362;58.948;2023-05-01T08:30:05;97516.91;;;37.64;9.43
49943;BME280;36011;53.362;58.948;2023-05-01T08:33:09;97526.75;;;39.84;8.46
49943;BME280;36011;53.362;58.948;2023-05-01T08:36:15;97526.53;;;40.42;8.26
49943;BME280;36011;53.362;58.948;2023-05-01T08:39:19;97526.50;;;41.14;7.84
49943;BME280;36011;53.362;58.948;2023-05-01T08:42:22;97530.59;;;41.81;7.74
49943;BME280;36011;53.362;58.948;2023-05-01T08:45:26;97529.59;;;42.51;6.60
49943;BME280;36011;53.362;58.948;2023-05-01T08:48:32;97529.75;;;42.94;7.42
49943;BME280;36011;53.362;58.948;2023-05-01T08:51:37;97530.38;;;42.56;7.40
49943;BME280;36011;53.362;58.948;2023-05-01T08:54:43;97528.22;;;40.43;8.10
49943;BME280;36011;53.362;58.948;2023-05-01T08:57:47;97523.25;;;37.92;9.04
49943;BME280;36011;53.362;58.948;2023-05-01T09:00:51;97511.25;;;36.20;9.90
49943;BME280;36011;53.362;58.948;2023-05-01T09:03:55;97519.16;;;36.84;9.28
49943;BME280;36011;53.362;58.948;2023-05-01T09:06:57;97522.44;;;36.02;9.97
49943;BME280;36011;53.362;58.948;2023-05-01T09:10:01;97511.66;;;34.32;10.61
49943;BME280;36011;53.362;58.948;2023-05-01T09:13:06;97515.47;;;33.89;10.48
49943;BME280;36011;53.362;58.948;2023-05-01T09:16:09;97518.34;;;32.91;10.99
49943;BME280;36011;53.362;58.948;2023-05-01T09:19:13;97515.44;;;32.17;11.79
49943;BME280;36011;53.362;58.948;2023-05-01T09:22:14;97509.69;;;31.62;12.07
49943;BME280;36011;53.362;58.948;2023-05-01T09:25:18;97500.38;;;30.79;12.28
49943;BME280;36011;53.362;58.948;2023-05-01T09:31:46;97516.59;;;33.70;10.53
49943;BME280;36011;53.362;58.948;2023-05-01T09:34:48;97515.97;;;34.75;10.05
49943;BME280;36011;53.362;58.948;2023-05-01T09:37:52;97514.78;;;35.47;9.69
49943;BME280;36011;53.362;58.948;2023-05-01T09:40:54;97505.31;;;35.38;10.00
49943;BME280;36011;53.362;58.948;2023-05-01T09:44:00;97511.25;;;35.35;10.06
49943;BME280;36011;53.362;58.948;2023-05-01T09:47:04;97509.44;;;35.81;9.72
49943;BME280;36011;53.362;58.948;2023-05-01T09:50:08;97510.38;;;35.58;10.06
49943;BME280;36011;53.362;58.948;2023-05-01T09:53:11;97503.34;;;35.90;9.90
49943;BME280;36011;53.362;58.948;2023-05-01T09:56:15;97516.50;;;36.73;9.64
49943;BME280;36011;53.362;58.948;2023-05-01T09:59:19;97516.47;;;37.06;9.73
49943;BME280;36011;53.362;58.948;2023-05-01T10:02:28;97522.81;;;36.23;9.78
49943;BME280;36011;53.362;58.948;2023-05-01T10:05:42;97511.22;;;34.94;10.59
49943;BME280;36011;53.362;58.948;2023-05-01T10:08:44;97502.06;;;33.58;11.08
49943;BME280;36011;53.362;58.948;2023-05-01T10:11:52;97508.94;;;32.86;11.81
49943;BME280;36011;53.362;58.948;2023-05-01T10:14:57;97506.47;;;34.01;11.01
49943;BME280;36011;53.362;58.948;2023-05-01T10:17:59;97508.75;;;34.69;10.59
49943;BME280;36011;53.362;58.948;2023-05-01T10:21:03;97512.28;;;34.34;10.79
49943;BME280;36011;53.362;58.948;2023-05-01T10:24:07;97505.59;;;34.18;10.82
49943;BME280;36011;53.362;58.948;2023-05-01T10:27:10;97505.84;;;34.87;10.57
49943;BME280;36011;53.362;58.948;2023-05-01T10:30:11;97504.53;;;35.54;10.00
49943;BME280;36011;53.362;58.948;2023-05-01T10:33:17;97496.22;;;36.23;10.13
49943;BME280;36011;53.362;58.948;2023-05-01T10:36:19;97505.88;;;36.59;9.70
49943;BME280;36011;53.362;58.948;2023-05-01T10:39:34;97511.75;;;36.17;9.67
49943;BME280;36011;53.362;58.948;2023-05-01T10:42:55;97499.81;;;33.36;11.41
49943;BME280;36011;53.362;58.948;2023-05-01T10:49:21;97495.81;;;28.84;14.12
49943;BME280;36011;53.362;58.948;2023-05-01T10:52:24;97493.59;;;28.59;14.24
49943;BME280;36011;53.362;58.948;2023-05-01T10:55:34;97498.34;;;30.41;13.12
49943;BME280;36011;53.362;58.948;2023-05-01T11:01:38;97505.88;;;33.20;11.51
49943;BME280;36011;53.362;58.948;2023-05-01T11:04:47;97502.75;;;33.83;11.30
49943;BME280;36011;53.362;58.948;2023-05-01T11:14:23;97492.81;;;34.01;10.90
49943;BME280;36011;53.362;58.948;2023-05-01T11:20:44;97492.22;;;33.98;10.96
49943;BME280;36011;53.362;58.948;2023-05-01T11:23:48;97494.00;;;33.63;11.24
49943;BME280;36011;53.362;58.948;2023-05-01T11:26:49;97498.41;;;33.45;11.44
49943;BME280;36011;53.362;58.948;2023-05-01T11:29:50;97498.47;;;33.08;11.92
49943;BME280;36011;53.362;58.948;2023-05-01T11:32:56;97491.69;;;32.74;11.79
49943;BME280;36011;53.362;58.948;2023-05-01T11:36:01;97489.34;;;32.59;11.96
49943;BME280;36011;53.362;58.948;2023-05-01T11:39:03;97482.66;;;32.30;12.10
49943;BME280;36011;53.362;58.948;2023-05-01T11:42:07;97485.66;;;31.97;12.36
49943;BME280;36011;53.362;58.948;2023-05-01T11:45:10;97485.41;;;31.28;12.70
49943;BME280;36011;53.362;58.948;2023-05-01T11:48:14;97482.41;;;30.78;13.28
49943;BME280;36011;53.362;58.948;2023-05-01T11:51:18;97479.13;;;30.23;13.79
49943;BME280;36011;53.362;58.948;2023-05-01T11:54:19;97482.88;;;29.75;13.92
49943;BME280;36011;53.362;58.948;2023-05-01T11:57:23;97466.44;;;29.29;14.09
49943;BME280;36011;53.362;58.948;2023-05-01T12:03:27;97471.94;;;28.59;14.42
49943;BME280;36011;53.362;58.948;2023-05-01T12:09:48;97476.69;;;28.29;14.96
49943;BME280;36011;53.362;58.948;2023-05-01T12:12:53;97470.16;;;28.17;14.99
49943;BME280;36011;53.362;58.948;2023-05-01T12:15:56;97475.06;;;27.85;15.27
49943;BME280;36011;53.362;58.948;2023-05-01T12:19:00;97476.69;;;27.80;15.13
49943;BME280;36011;53.362;58.948;2023-05-01T12:22:07;97477.56;;;27.65;15.36
49943;BME280;36011;53.362;58.948;2023-05-01T12:25:08;97476.13;;;27.26;15.92
49943;BME280;36011;53.362;58.948;2023-05-01T12:28:15;97466.28;;;27.04;15.88
49943;BME280;36011;53.362;58.948;2023-05-01T12:31:26;97467.56;;;27.08;15.81
49943;BME280;36011;53.362;58.948;2023-05-01T12:34:30;97462.91;;;27.02;15.75
49943;BME280;36011;53.362;58.948;2023-05-01T12:37:35;97468.56;;;26.56;16.47
49943;BME280;36011;53.362;58.948;2023-05-01T12:40:39;97464.78;;;26.27;16.29
49943;BME280;36011;53.362;58.948;2023-05-01T12:43:40;97469.28;;;26.12;16.70
49943;BME280;36011;53.362;58.948;2023-05-01T12:46:42;97467.72;;;25.80;17.20
49943;BME280;36011;53.362;58.948;2023-05-01T12:49:44;97465.28;;;25.39;17.27
49943;BME280;36011;53.362;58.948;2023-05-01T12:52:48;97469.31;;;25.12;17.50
49943;BME280;36011;53.362;58.948;2023-05-01T12:55:54;97472.47;;;24.84;17.90
49943;BME280;36011;53.362;58.948;2023-05-01T12:58:57;97472.19;;;24.71;18.06
49943;BME280;36011;53.362;58.948;2023-05-01T13:05:06;97474.00;;;23.73;18.45
49943;BME280;36011;53.362;58.948;2023-05-01T13:08:08;97468.56;;;23.24;19.06
49943;BME280;36011;53.362;58.948;2023-05-01T13:11:12;97466.03;;;22.80;19.38
49943;BME280;36011;53.362;58.948;2023-05-01T13:14:16;97458.75;;;22.30;19.64
49943;BME280;36011;53.362;58.948;2023-05-01T13:17:26;97457.88;;;22.04;19.91
49943;BME280;36011;53.362;58.948;2023-05-01T13:20:30;97461.38;;;21.78;20.39
49943;BME280;36011;53.362;58.948;2023-05-01T13:23:31;97467.13;;;21.47;20.51
49943;BME280;36011;53.362;58.948;2023-05-01T13:26:35;97474.44;;;21.10;20.91
49943;BME280;36011;53.362;58.948;2023-05-01T13:29:38;97473.56;;;20.91;21.21
49943;BME280;36011;53.362;58.948;2023-05-01T13:32:41;97472.69;;;20.73;21.13
49943;BME280;36011;53.362;58.948;2023-05-01T13:35:44;97478.88;;;20.63;21.56
49943;BME280;36011;53.362;58.948;2023-05-01T13:38:51;97472.81;;;20.34;21.61
49943;BME280;36011;53.362;58.948;2023-05-01T13:41:58;97478.19;;;20.14;21.92
49943;BME280;36011;53.362;58.948;2023-05-01T13:45:03;97474.00;;;20.02;22.05
49943;BME280;36011;53.362;58.948;2023-05-01T13:48:06;97478.81;;;19.89;22.20
49943;BME280;36011;53.362;58.948;2023-05-01T13:51:08;97477.72;;;19.82;22.47
49943;BME280;36011;53.362;58.948;2023-05-01T13:54:14;97479.66;;;19.70;22.76
49943;BME280;36011;53.362;58.948;2023-05-01T13:57:19;97488.66;;;19.59;22.47
49943;BME280;36011;53.362;58.948;2023-05-01T14:00:20;97485.81;;;19.41;22.64
49943;BME280;36011;53.362;58.948;2023-05-01T14:03:24;97496.78;;;19.28;22.81
49943;BME280;36011;53.362;58.948;2023-05-01T14:06:26;97500.13;;;19.21;23.21
49943;BME280;36011;53.362;58.948;2023-05-01T14:09:28;97494.75;;;19.01;23.06
49943;BME280;36011;53.362;58.948;2023-05-01T14:12:31;97501.19;;;18.89;23.48
49943;BME280;36011;53.362;58.948;2023-05-01T14:15:32;97499.88;;;18.74;23.26
49943;BME280;36011;53.362;58.948;2023-05-01T14:18:45;97500.47;;;18.56;23.35
49943;BME280;36011;53.362;58.948;2023-05-01T14:21:47;97497.31;;;18.42;23.69
49943;BME280;36011;53.362;58.948;2023-05-01T14:24:51;97506.78;;;18.25;23.96
49943;BME280;36011;53.362;58.948;2023-05-01T14:27:52;97502.50;;;18.12;24.05
49943;BME280;36011;53.362;58.948;2023-05-01T14:30:57;97512.78;;;17.96;24.25
49943;BME280;36011;53.362;58.948;2023-05-01T14:34:02;97512.13;;;17.83;24.62
49943;BME280;36011;53.362;58.948;2023-05-01T14:37:04;97509.03;;;17.66;24.79
49943;BME280;36011;53.362;58.948;2023-05-01T14:40:10;97517.44;;;17.50;24.82
49943;BME280;36011;53.362;58.948;2023-05-01T14:43:17;97511.31;;;17.39;25.23
49943;BME280;36011;53.362;58.948;2023-05-01T14:46:28;97524.09;;;17.13;25.34
49943;BME280;36011;53.362;58.948;2023-05-01T14:49:32;97516.84;;;16.92;25.89
49943;BME280;36011;53.362;58.948;2023-05-01T14:52:36;97509.59;;;16.72;25.86
49943;BME280;36011;53.362;58.948;2023-05-01T15:03:44;97507.41;;;16.09;27.00
49943;BME280;36011;53.362;58.948;2023-05-01T15:07:04;97513.91;;;15.94;27.48
49943;BME280;36011;53.362;58.948;2023-05-01T15:10:36;97510.81;;;15.76;27.35
49943;BME280;36011;53.362;58.948;2023-05-01T15:13:59;97518.09;;;15.61;27.95
49943;BME280;36011;53.362;58.948;2023-05-01T15:17:00;97511.53;;;15.43;28.02
49943;BME280;36011;53.362;58.948;2023-05-01T15:20:04;97511.59;;;15.30;27.72
49943;BME280;36011;53.362;58.948;2023-05-01T15:23:08;97511.31;;;15.22;27.86
49943;BME280;36011;53.362;58.948;2023-05-01T15:26:19;97518.81;;;15.04;28.49
49943;BME280;36011;53.362;58.948;2023-05-01T15:29:23;97520.53;;;14.92;28.37
49943;BME280;36011;53.362;58.948;2023-05-01T15:32:30;97518.75;;;14.80;28.36
49943;BME280;36011;53.362;58.948;2023-05-01T15:35:34;97525.69;;;14.70;28.56
49943;BME280;36011;53.362;58.948;2023-05-01T15:38:37;97531.00;;;14.57;28.78
49943;BME280;36011;53.362;58.948;2023-05-01T15:41:38;97522.00;;;14.47;28.97
49943;BME280;36011;53.362;58.948;2023-05-01T15:44:42;97518.06;;;14.40;28.97
49943;BME280;36011;53.362;58.948;2023-05-01T15:47:48;97524.75;;;14.32;28.90
49943;BME280;36011;53.362;58.948;2023-05-01T15:50:51;97522.50;;;14.26;28.79
49943;BME280;36011;53.362;58.948;2023-05-01T15:53:54;97530.66;;;14.23;28.95
49943;BME280;36011;53.362;58.948;2023-05-01T15:57:01;97539.03;;;14.17;29.32
49943;BME280;36011;53.362;58.948;2023-05-01T16:00:07;97534.91;;;14.13;28.86
49943;BME280;36011;53.362;58.948;2023-05-01T16:03:08;97523.78;;;14.08;29.51
49943;BME280;36011;53.362;58.948;2023-05-01T16:06:14;97535.84;;;13.99;29.61
49943;BME280;36011;53.362;58.948;2023-05-01T16:09:20;97545.81;;;13.96;29.56
49943;BME280;36011;53.362;58.948;2023-05-01T16:12:28;97544.50;;;13.88;29.92
49943;BME280;36011;53.362;58.948;2023-05-01T16:15:33;97560.88;;;13.81;29.61
49943;BME280;36011;53.362;58.948;2023-05-01T16:18:34;97556.78;;;13.77;29.82
49943;BME280;36011;53.362;58.948;2023-05-01T16:21:35;97563.09;;;13.74;30.45
49943;BME280;36011;53.362;58.948;2023-05-01T16:24:38;97565.19;;;13.69;29.71
49943;BME280;36011;53.362;58.948;2023-05-01T16:27:42;97553.16;;;13.65;30.58
49943;BME280;36011;53.362;58.948;2023-05-01T16:30:54;97563.19;;;13.60;30.63
49943;BME280;36011;53.362;58.948;2023-05-01T16:33:58;97557.75;;;13.48;31.95
49943;BME280;36011;53.362;58.948;2023-05-01T16:36:59;97568.13;;;13.52;30.37
49943;BME280;36011;53.362;58.948;2023-05-01T16:40:00;97561.34;;;13.47;30.62
49943;BME280;36011;53.362;58.948;2023-05-01T16:43:04;97565.13;;;13.43;30.61
49943;BME280;36011;53.362;58.948;2023-05-01T16:46:07;97561.72;;;13.41;31.08
49943;BME280;36011;53.362;58.948;2023-05-01T16:49:11;97574.22;;;13.39;30.49